createdAt,value
2022-08-26T00:01:56.455Z,23.83
2022-08-26T00:04:25.854Z,23.70
2022-08-26T00:06:57.336Z,23.61
2022-08-26T00:09:26.380Z,23.52
2022-08-26T00:11:54.490Z,23.47
2022-08-26T00:14:28.319Z,23.54
2022-08-26T00:16:58.716Z,23.51
2022-08-26T00:19:25.916Z,23.53
2022-08-26T00:21:53.261Z,23.45
2022-08-26T00:24:21.911Z,23.41
2022-08-26T00:26:49.889Z,23.52
2022-08-26T00:29:19.162Z,23.38
2022-08-26T00:31:48.650Z,23.34
2022-08-26T00:34:19.500Z,23.49
2022-08-26T00:36:47.941Z,23.51
2022-08-26T00:39:20.127Z,23.45
2022-08-26T00:41:47.716Z,23.47
2022-08-26T00:44:15.056Z,23.52
2022-08-26T00:46:47.183Z,23.47
2022-08-26T00:49:44.631Z,23.47
2022-08-26T00:52:18.683Z,23.51
2022-08-26T00:54:53.964Z,23.40
2022-08-26T00:57:23.486Z,23.37
2022-08-26T00:59:55.379Z,23.37
2022-08-26T01:02:24.206Z,23.32
2022-08-26T01:04:56.197Z,23.32
2022-08-26T01:07:27.421Z,23.40
2022-08-26T01:09:59.737Z,23.27
2022-08-26T01:12:29.394Z,23.33
2022-08-26T01:14:56.819Z,23.31
2022-08-26T01:17:24.053Z,23.28
2022-08-26T01:20:14.209Z,23.18
2022-08-26T01:23:09.844Z,23.31
2022-08-26T01:25:45.082Z,23.15
2022-08-26T01:28:21.879Z,23.09
2022-08-26T01:30:53.191Z,23.08
2022-08-26T01:33:26.703Z,23.04
2022-08-26T01:35:53.910Z,23.04
2022-08-26T01:38:21.626Z,23.10
2022-08-26T01:40:51.599Z,23.05
2022-08-26T01:43:25.314Z,23.02
2022-08-26T01:45:55.140Z,22.96
2022-08-26T01:48:31.997Z,22.97
2022-08-26T01:51:01.049Z,23.03
2022-08-26T01:53:28.344Z,23.05
2022-08-26T01:55:59.232Z,23.01
2022-08-26T01:58:40.465Z,23.08
2022-08-26T02:01:08.078Z,23.08
2022-08-26T02:03:51.040Z,23.23
2022-08-26T02:06:19.872Z,23.09
2022-08-26T02:08:52.343Z,23.10
2022-08-26T02:11:19.674Z,23.25
2022-08-26T02:13:52.351Z,23.10
2022-08-26T02:16:27.265Z,23.12
2022-08-26T02:18:55.962Z,23.08
2022-08-26T02:21:24.867Z,23.07
2022-08-26T02:23:52.563Z,22.99
2022-08-26T02:26:27.028Z,23.06
2022-08-26T02:29:07.597Z,22.84
2022-08-26T02:31:35.023Z,22.67
2022-08-26T02:34:16.559Z,22.66
2022-08-26T02:36:44.245Z,22.47
2022-08-26T02:39:12.084Z,22.51
2022-08-26T02:41:45.310Z,22.48
2022-08-26T02:44:13.617Z,22.51
2022-08-26T02:46:41.871Z,22.50
2022-08-26T02:49:15.744Z,22.50
2022-08-26T02:51:44.652Z,22.55
2022-08-26T02:54:12.054Z,22.37
2022-08-26T02:56:39.669Z,22.26
2022-08-26T02:59:07.120Z,22.03
2022-08-26T03:01:36.175Z,22.15
2022-08-26T03:04:05.071Z,22.02
2022-08-26T03:06:33.064Z,22.30
2022-08-26T03:09:00.198Z,22.49
2022-08-26T03:11:30.941Z,22.52
2022-08-26T03:14:03.436Z,22.45
2022-08-26T03:16:36.435Z,22.57
2022-08-26T03:19:06.052Z,22.52
2022-08-26T03:21:33.784Z,22.46
2022-08-26T03:24:03.933Z,22.37
2022-08-26T03:26:31.551Z,22.38
2022-08-26T03:29:17.546Z,22.31
2022-08-26T03:31:46.871Z,22.28
2022-08-26T03:34:15.563Z,22.22
2022-08-26T03:36:43.840Z,22.34
2022-08-26T03:39:14.022Z,22.37
2022-08-26T03:41:45.259Z,22.31
2022-08-26T03:44:13.035Z,22.31
2022-08-26T03:46:41.671Z,22.25
2022-08-26T03:49:11.530Z,22.29
2022-08-26T03:51:39.599Z,22.33
2022-08-26T03:54:09.767Z,22.41
2022-08-26T03:56:37.249Z,22.52
2022-08-26T03:59:07.642Z,22.57
2022-08-26T04:01:35.743Z,22.63
2022-08-26T04:04:03.520Z,22.76
2022-08-26T04:06:45.195Z,22.74
2022-08-26T04:09:18.695Z,22.69
2022-08-26T04:11:50.632Z,22.70
2022-08-26T04:14:21.883Z,22.70
2022-08-26T04:16:52.846Z,22.59
2022-08-26T04:19:24.151Z,22.74
2022-08-26T04:21:53.404Z,22.63
2022-08-26T04:24:24.226Z,22.72
2022-08-26T04:26:51.588Z,22.81
2022-08-26T04:29:23.841Z,22.96
2022-08-26T04:31:55.582Z,23.05
2022-08-26T04:34:28.380Z,22.98
2022-08-26T04:36:56.752Z,22.87
2022-08-26T04:39:24.327Z,22.81
2022-08-26T04:41:55.471Z,22.93
2022-08-26T04:44:27.844Z,22.87
2022-08-26T04:46:55.232Z,22.76
2022-08-26T04:49:23.189Z,22.83
2022-08-26T04:51:53.603Z,22.70
2022-08-26T04:54:22.284Z,22.55
2022-08-26T04:56:50.844Z,22.45
2022-08-26T04:59:18.403Z,22.36
2022-08-26T05:01:52.291Z,22.37
2022-08-26T05:04:21.288Z,22.37
2022-08-26T05:06:50.881Z,22.41
2022-08-26T05:09:19.793Z,22.41
2022-08-26T05:11:48.544Z,22.44
2022-08-26T05:14:19.728Z,22.53
2022-08-26T05:16:47.778Z,22.67
2022-08-26T05:19:17.189Z,22.68
2022-08-26T05:21:48.807Z,22.86
2022-08-26T05:24:17.268Z,23.03
2022-08-26T05:26:47.233Z,23.07
2022-08-26T05:29:15.996Z,23.19
2022-08-26T05:31:44.243Z,23.41
2022-08-26T05:34:13.965Z,23.45
2022-08-26T05:36:41.528Z,23.42
2022-08-26T05:39:10.546Z,23.51
2022-08-26T05:41:41.237Z,23.57
2022-08-26T05:44:11.472Z,23.58
2022-08-26T05:46:40.222Z,23.69
2022-08-26T05:49:12.808Z,23.69
2022-08-26T05:51:41.818Z,23.82
2022-08-26T05:54:10.342Z,23.83
2022-08-26T05:56:39.859Z,23.91
2022-08-26T05:59:14.546Z,24.04
2022-08-26T06:01:43.917Z,24.14
2022-08-26T06:04:12.160Z,24.09
2022-08-26T06:06:41.732Z,24.31
2022-08-26T06:09:11.390Z,24.35
2022-08-26T06:11:39.322Z,24.35
2022-08-26T06:14:08.059Z,24.35
2022-08-26T06:16:40.758Z,24.45
2022-08-26T06:19:11.590Z,24.44
2022-08-26T06:21:42.300Z,24.64
2022-08-26T06:24:32.602Z,24.76
2022-08-26T06:27:05.386Z,24.82
2022-08-26T06:29:34.863Z,24.99
2022-08-26T06:32:04.615Z,25.06
2022-08-26T06:34:32.003Z,25.15
2022-08-26T06:37:02.688Z,25.34
2022-08-26T06:39:31.561Z,25.41
2022-08-26T06:42:00.714Z,25.52
2022-08-26T06:44:30.168Z,25.53
2022-08-26T06:46:57.584Z,25.65
2022-08-26T06:49:27.726Z,25.71
2022-08-26T06:51:58.841Z,25.83
2022-08-26T06:54:28.062Z,25.93
2022-08-26T06:56:57.028Z,26.04
2022-08-26T06:59:25.308Z,26.12
2022-08-26T07:01:53.417Z,26.24
2022-08-26T07:04:23.100Z,26.27
2022-08-26T07:06:54.078Z,26.38
2022-08-26T07:09:28.559Z,26.42
2022-08-26T07:11:56.582Z,26.55
2022-08-26T07:14:26.240Z,26.59
2022-08-26T07:16:54.308Z,26.59
2022-08-26T07:19:30.209Z,26.68
2022-08-26T07:22:05.417Z,26.65
2022-08-26T07:24:35.144Z,26.71
2022-08-26T07:27:06.473Z,26.79
2022-08-26T07:29:34.957Z,26.84
2022-08-26T07:32:02.858Z,26.88
2022-08-26T07:34:32.298Z,26.97
2022-08-26T07:37:01.027Z,27.04
2022-08-26T07:39:28.707Z,27.13
2022-08-26T07:42:07.512Z,27.17
2022-08-26T07:44:37.714Z,27.23
2022-08-26T07:47:10.197Z,27.28
2022-08-26T07:49:52.657Z,27.39
2022-08-26T07:52:25.314Z,27.47
2022-08-26T07:54:55.030Z,27.53
2022-08-26T07:57:22.207Z,27.60
2022-08-26T07:59:52.090Z,27.66
2022-08-26T08:02:21.396Z,27.72
2022-08-26T08:04:48.977Z,27.72
2022-08-26T08:07:16.469Z,27.75
2022-08-26T08:09:43.872Z,27.84
2022-08-26T08:12:14.204Z,27.83
2022-08-26T08:14:45.374Z,27.87
2022-08-26T08:17:14.580Z,27.91
2022-08-26T08:19:43.544Z,27.94
2022-08-26T08:22:17.941Z,28.05
2022-08-26T08:24:49.786Z,28.11
2022-08-26T08:27:22.792Z,28.12
2022-08-26T08:29:54.979Z,28.28
2022-08-26T08:32:23.788Z,28.24
2022-08-26T08:34:51.153Z,28.23
2022-08-26T08:37:18.863Z,28.21
2022-08-26T08:39:46.046Z,28.30
2022-08-26T08:42:48.757Z,28.45
2022-08-26T08:45:54.934Z,28.46
2022-08-26T08:48:27.861Z,28.48
2022-08-26T08:51:22.272Z,28.60
2022-08-26T08:53:54.768Z,28.58
2022-08-26T08:56:28.243Z,28.65
2022-08-26T08:59:18.284Z,28.70
2022-08-26T09:01:58.934Z,28.71
2022-08-26T09:04:55.243Z,28.78
2022-08-26T09:07:38.426Z,28.77
2022-08-26T09:10:25.144Z,28.79
2022-08-26T09:12:53.103Z,28.82
2022-08-26T09:15:39.163Z,28.89
2022-08-26T09:18:19.058Z,28.96
2022-08-26T09:20:56.170Z,29.04
2022-08-26T09:23:24.083Z,29.05
2022-08-26T09:25:55.967Z,29.11
2022-08-26T09:28:25.383Z,29.23
2022-08-26T09:31:09.208Z,29.36
2022-08-26T09:33:38.070Z,29.36
2022-08-26T09:36:15.992Z,29.43
2022-08-26T09:38:43.943Z,29.52
2022-08-26T09:41:25.013Z,29.66
2022-08-26T09:44:04.588Z,29.80
2022-08-26T09:46:33.130Z,29.84
2022-08-26T09:49:20.662Z,30.04
2022-08-26T09:51:50.131Z,30.04
2022-08-26T09:54:30.524Z,30.15
2022-08-26T09:57:27.286Z,30.27
2022-08-26T09:59:56.530Z,30.34
2022-08-26T10:02:41.855Z,30.39
2022-08-26T10:05:30.449Z,30.30
2022-08-26T10:07:59.618Z,30.35
2022-08-26T10:10:33.436Z,30.34
2022-08-26T10:13:16.507Z,30.33
2022-08-26T10:15:57.944Z,30.42
2022-08-26T10:18:34.159Z,30.43
2022-08-26T10:21:12.574Z,30.49
2022-08-26T10:23:47.442Z,30.53
2022-08-26T10:26:19.489Z,30.52
2022-08-26T10:29:08.002Z,30.56
2022-08-26T10:31:49.080Z,30.61
2022-08-26T10:34:19.380Z,30.63
2022-08-26T10:37:15.707Z,30.73
2022-08-26T10:40:02.390Z,30.81
2022-08-26T10:42:37.549Z,30.84
2022-08-26T10:45:14.899Z,30.89
2022-08-26T10:48:01.511Z,30.92
2022-08-26T10:50:42.308Z,31.02
2022-08-26T10:53:46.258Z,31.11
2022-08-26T10:56:32.853Z,31.13
2022-08-26T10:59:12.367Z,31.17
2022-08-26T11:02:01.209Z,31.16
2022-08-26T11:04:48.392Z,31.12
2022-08-26T11:07:46.428Z,31.35
2022-08-26T11:10:42.616Z,31.33
2022-08-26T11:13:12.176Z,31.34
2022-08-26T11:15:39.198Z,31.35
2022-08-26T11:18:09.900Z,31.32
2022-08-26T11:20:41.768Z,31.24
2022-08-26T11:23:12.669Z,31.18
2022-08-26T11:26:05.443Z,31.26
2022-08-26T11:28:46.148Z,31.24
2022-08-26T11:31:26.709Z,31.26
2022-08-26T11:33:58.183Z,31.26
2022-08-26T11:36:55.738Z,31.30
2022-08-26T11:39:24.505Z,31.30
2022-08-26T11:41:54.637Z,31.29
2022-08-26T11:44:24.725Z,31.28
2022-08-26T11:46:58.237Z,31.41
2022-08-26T11:49:27.184Z,31.45
2022-08-26T11:52:20.914Z,31.55
2022-08-26T11:55:09.715Z,31.63
2022-08-26T11:57:47.194Z,31.64
2022-08-26T12:00:33.480Z,31.76
2022-08-26T12:03:06.498Z,31.73
2022-08-26T12:05:44.287Z,31.78
2022-08-26T12:08:16.649Z,31.69
2022-08-26T12:10:44.283Z,31.66
2022-08-26T12:13:22.367Z,31.78
2022-08-26T12:15:59.500Z,31.73
2022-08-26T12:18:33.277Z,31.77
2022-08-26T12:21:13.876Z,31.76
2022-08-26T12:23:48.140Z,31.74
2022-08-26T12:26:24.904Z,31.74
2022-08-26T12:29:09.974Z,31.81
2022-08-26T12:31:48.019Z,31.81
2022-08-26T12:34:18.029Z,31.74
2022-08-26T12:36:57.480Z,31.84
2022-08-26T12:39:26.971Z,31.81
2022-08-26T12:41:57.085Z,31.80
2022-08-26T12:44:53.173Z,31.91
2022-08-26T12:47:42.516Z,31.87
2022-08-26T12:50:28.304Z,31.73
2022-08-26T12:52:58.017Z,31.73
2022-08-26T12:55:33.243Z,31.67
2022-08-26T12:58:37.404Z,31.76
2022-08-26T13:01:05.059Z,31.72
2022-08-26T13:03:43.689Z,31.76
2022-08-26T13:06:16.031Z,31.77
2022-08-26T13:08:44.762Z,31.73
2022-08-26T13:11:24.936Z,31.79
2022-08-26T13:14:10.170Z,31.82
2022-08-26T13:16:39.538Z,31.79
2022-08-26T13:19:12.494Z,31.79
2022-08-26T13:21:53.743Z,31.71
2022-08-26T13:24:42.431Z,31.76
2022-08-26T13:27:12.981Z,31.72
2022-08-26T13:29:40.598Z,31.71
2022-08-26T13:32:09.250Z,31.72
2022-08-26T13:34:38.396Z,31.71
2022-08-26T13:37:06.559Z,31.65
2022-08-26T13:39:34.038Z,31.64
2022-08-26T13:42:01.586Z,31.67
2022-08-26T13:44:29.087Z,31.64
2022-08-26T13:46:56.280Z,31.64
2022-08-26T13:49:23.518Z,31.66
2022-08-26T13:51:50.724Z,31.62
2022-08-26T13:54:18.016Z,31.64
2022-08-26T13:56:45.851Z,31.64
2022-08-26T13:59:13.472Z,31.59
2022-08-26T14:01:40.935Z,31.58
2022-08-26T14:04:08.929Z,31.55
2022-08-26T14:06:36.436Z,31.60
2022-08-26T14:09:04.575Z,31.58
2022-08-26T14:11:41.114Z,31.61
2022-08-26T14:14:19.483Z,31.62
2022-08-26T14:16:58.919Z,31.61
2022-08-26T14:19:30.496Z,31.61
2022-08-26T14:21:59.512Z,31.68
2022-08-26T14:24:26.693Z,31.69
2022-08-26T14:26:54.118Z,31.66
2022-08-26T14:29:21.442Z,31.69
2022-08-26T14:31:48.887Z,31.72
2022-08-26T14:34:16.428Z,31.62
2022-08-26T14:36:43.868Z,31.63
2022-08-26T14:39:13.727Z,31.62
2022-08-26T14:42:01.367Z,31.68
2022-08-26T14:44:31.861Z,31.62
2022-08-26T14:47:03.024Z,31.65
2022-08-26T14:49:31.819Z,31.63
2022-08-26T14:51:59.487Z,31.61
2022-08-26T14:54:26.979Z,31.58
2022-08-26T14:57:00.171Z,31.62
2022-08-26T14:59:34.165Z,31.60
2022-08-26T15:02:01.945Z,31.62
2022-08-26T15:04:29.518Z,31.52
2022-08-26T15:06:59.187Z,31.54
2022-08-26T15:09:28.696Z,31.57
2022-08-26T15:11:56.397Z,31.53
2022-08-26T15:14:24.359Z,31.53
2022-08-26T15:16:56.072Z,31.51
2022-08-26T15:19:25.067Z,31.47
2022-08-26T15:21:52.479Z,31.49
2022-08-26T15:24:22.330Z,31.47
2022-08-26T15:26:50.226Z,31.45
2022-08-26T15:29:17.549Z,31.35
2022-08-26T15:31:45.325Z,31.39
2022-08-26T15:34:16.656Z,31.34
2022-08-26T15:36:46.661Z,31.32
2022-08-26T15:39:15.939Z,31.28
2022-08-26T15:41:43.184Z,31.25
2022-08-26T15:44:11.540Z,31.11
2022-08-26T15:46:39.400Z,31.12
2022-08-26T15:49:07.991Z,30.99
2022-08-26T15:51:45.408Z,30.96
2022-08-26T15:54:13.943Z,30.93
2022-08-26T15:56:41.397Z,30.91
2022-08-26T15:59:11.905Z,30.81
2022-08-26T16:01:40.151Z,30.83
2022-08-26T16:04:07.707Z,30.80
2022-08-26T16:06:37.389Z,30.79
2022-08-26T16:09:06.314Z,30.73
2022-08-26T16:11:36.128Z,30.61
2022-08-26T16:14:04.971Z,30.56
2022-08-26T16:16:32.432Z,30.53
2022-08-26T16:19:03.263Z,30.44
2022-08-26T16:21:35.032Z,30.46
2022-08-26T16:24:04.896Z,30.40
2022-08-26T16:26:36.474Z,30.38
2022-08-26T16:29:07.146Z,30.30
2022-08-26T16:31:35.373Z,30.27
2022-08-26T16:34:02.654Z,30.17
2022-08-26T16:36:30.201Z,30.12
2022-08-26T16:38:57.574Z,30.15
2022-08-26T16:41:27.572Z,30.11
2022-08-26T16:43:55.492Z,30.10
2022-08-26T16:46:25.878Z,30.04
2022-08-26T16:48:55.028Z,29.95
2022-08-26T16:51:24.646Z,29.97
2022-08-26T16:53:52.475Z,29.93
2022-08-26T16:56:33.795Z,29.97
2022-08-26T16:59:04.305Z,29.82
2022-08-26T17:01:31.976Z,29.78
2022-08-26T17:03:59.511Z,29.69
2022-08-26T17:06:27.055Z,29.67
2022-08-26T17:08:54.439Z,29.59
2022-08-26T17:11:22.013Z,29.57
2022-08-26T17:13:49.275Z,29.49
2022-08-26T17:16:16.770Z,29.45
2022-08-26T17:18:44.375Z,29.40
2022-08-26T17:21:13.844Z,29.32
2022-08-26T17:23:42.652Z,29.19
2022-08-26T17:26:12.265Z,29.20
2022-08-26T17:28:39.857Z,29.15
2022-08-26T17:31:08.627Z,29.18
2022-08-26T17:33:36.197Z,29.14
2022-08-26T17:36:06.499Z,29.09
2022-08-26T17:38:34.603Z,29.10
2022-08-26T17:41:01.990Z,29.12
2022-08-26T17:43:29.536Z,29.07
2022-08-26T17:46:06.899Z,29.07
2022-08-26T17:48:36.416Z,29.11
2022-08-26T17:51:14.434Z,29.08
2022-08-26T17:53:42.879Z,29.09
2022-08-26T17:56:13.912Z,29.10
2022-08-26T17:58:51.036Z,29.05
2022-08-26T18:01:21.164Z,29.03
2022-08-26T18:03:49.421Z,29.04
2022-08-26T18:06:16.852Z,28.97
2022-08-26T18:08:45.028Z,28.98
2022-08-26T18:11:16.133Z,29.02
2022-08-26T18:13:47.073Z,28.97
2022-08-26T18:16:17.739Z,28.85
2022-08-26T18:18:46.680Z,28.83
2022-08-26T18:21:17.940Z,28.90
2022-08-26T18:23:47.299Z,28.77
2022-08-26T18:26:20.695Z,28.89
2022-08-26T18:28:48.149Z,28.87
2022-08-26T18:31:16.195Z,28.83
2022-08-26T18:33:44.732Z,28.81
2022-08-26T18:36:36.694Z,28.91
2022-08-26T18:39:06.315Z,28.85
2022-08-26T18:41:39.195Z,28.78
2022-08-26T18:44:09.465Z,28.82
2022-08-26T18:46:39.140Z,28.74
2022-08-26T18:49:08.684Z,28.75
2022-08-26T18:51:36.896Z,28.79
2022-08-26T18:54:06.780Z,28.69
2022-08-26T18:56:36.830Z,28.72
2022-08-26T18:59:06.516Z,28.73
2022-08-26T19:01:35.511Z,28.64
2022-08-26T19:04:05.220Z,28.64
2022-08-26T19:06:35.636Z,28.61
2022-08-26T19:09:05.073Z,28.58
2022-08-26T19:11:37.581Z,28.53
2022-08-26T19:14:13.292Z,28.41
2022-08-26T19:16:42.584Z,28.37
2022-08-26T19:19:10.788Z,28.35
2022-08-26T19:21:39.247Z,28.40
2022-08-26T19:24:15.465Z,28.37
2022-08-26T19:26:48.010Z,28.34
2022-08-26T19:31:44.995Z,28.19
2022-08-26T19:34:18.330Z,28.29
2022-08-26T19:36:49.064Z,28.18
2022-08-26T19:39:16.668Z,28.19
2022-08-26T19:41:44.651Z,28.17
2022-08-26T19:44:35.340Z,28.08
2022-08-26T19:47:08.754Z,27.99
2022-08-26T19:49:36.594Z,28.03
2022-08-26T19:52:05.997Z,28.06
2022-08-26T19:54:34.807Z,28.09
2022-08-26T19:57:02.169Z,28.14
2022-08-26T19:59:29.664Z,28.03
2022-08-26T20:02:01.200Z,28.11
2022-08-26T20:04:31.943Z,28.05
2022-08-26T20:07:01.456Z,27.99
2022-08-26T20:09:30.423Z,27.91
2022-08-26T20:11:57.682Z,27.98
2022-08-26T20:14:26.725Z,27.99
2022-08-26T20:16:54.453Z,27.90
2022-08-26T20:19:40.134Z,27.84
2022-08-26T20:22:08.135Z,27.77
2022-08-26T20:24:36.211Z,27.68
2022-08-26T20:27:07.656Z,27.54
2022-08-26T20:29:37.644Z,27.60
2022-08-26T20:32:08.103Z,27.64
2022-08-26T20:34:36.739Z,27.59
2022-08-26T20:37:04.811Z,27.64
2022-08-26T20:39:32.037Z,27.62
2022-08-26T20:41:59.910Z,27.49
2022-08-26T20:44:27.828Z,27.64
2022-08-26T20:46:56.837Z,27.59
2022-08-26T20:49:24.473Z,27.45
2022-08-26T20:51:52.149Z,27.55
2022-08-26T20:54:25.012Z,27.49
2022-08-26T20:56:56.979Z,27.52
2022-08-26T20:59:25.427Z,27.50
2022-08-26T21:01:53.533Z,27.43
2022-08-26T21:04:23.419Z,27.40
2022-08-26T21:06:52.193Z,27.37
2022-08-26T21:09:22.879Z,27.38
2022-08-26T21:11:50.735Z,27.43
2022-08-26T21:14:19.165Z,27.31
2022-08-26T21:16:46.980Z,27.22
2022-08-26T21:19:18.255Z,27.24
2022-08-26T21:21:47.747Z,27.25
2022-08-26T21:24:16.036Z,27.30
2022-08-26T21:26:44.023Z,27.23
2022-08-26T21:29:13.695Z,26.99
2022-08-26T21:31:46.099Z,27.14
2022-08-26T21:34:18.941Z,27.11
2022-08-26T21:36:47.731Z,27.04
2022-08-26T21:39:15.767Z,26.99
2022-08-26T21:41:44.469Z,26.95
2022-08-26T21:44:14.046Z,26.88
2022-08-26T21:46:42.881Z,26.98
2022-08-26T21:49:12.539Z,26.91
2022-08-26T21:51:43.355Z,26.91
2022-08-26T21:54:11.856Z,26.91
2022-08-26T21:56:44.769Z,26.89
2022-08-26T21:59:16.519Z,26.89
2022-08-26T22:01:43.990Z,26.92
2022-08-26T22:04:11.680Z,26.72
2022-08-26T22:06:45.853Z,26.74
2022-08-26T22:09:14.494Z,26.97
2022-08-26T22:11:42.575Z,26.77
2022-08-26T22:14:10.218Z,26.69
2022-08-26T22:16:40.329Z,26.69
2022-08-26T22:19:08.234Z,26.57
2022-08-26T22:21:41.717Z,26.65
2022-08-26T22:24:12.714Z,26.56
2022-08-26T22:26:40.297Z,26.56
2022-08-26T22:29:07.929Z,26.48
2022-08-26T22:31:37.988Z,26.54
2022-08-26T22:34:08.777Z,26.51
2022-08-26T22:36:43.703Z,26.50
2022-08-26T22:39:16.816Z,26.40
2022-08-26T22:41:45.762Z,26.30
2022-08-26T22:44:13.297Z,26.21
2022-08-26T22:46:43.347Z,26.28
2022-08-26T22:49:12.746Z,26.28
2022-08-26T22:51:40.031Z,26.24
2022-08-26T22:54:08.044Z,26.23
2022-08-26T22:56:35.731Z,26.32
2022-08-26T22:59:04.322Z,26.29
2022-08-26T23:01:33.577Z,26.32
2022-08-26T23:04:01.863Z,26.35
2022-08-26T23:06:29.270Z,26.35
2022-08-26T23:08:56.518Z,26.26
2022-08-26T23:11:24.519Z,26.25
2022-08-26T23:13:52.107Z,26.22
2022-08-26T23:16:19.691Z,26.17
2022-08-26T23:18:47.275Z,26.08
2022-08-26T23:21:14.785Z,25.87
2022-08-26T23:23:42.273Z,26.00
2022-08-26T23:26:09.968Z,25.81
2022-08-26T23:28:38.699Z,25.67
2022-08-26T23:31:06.358Z,25.37
2022-08-26T23:33:51.944Z,25.18
2022-08-26T23:36:22.796Z,25.12
2022-08-26T23:38:53.671Z,24.98
2022-08-26T23:41:24.771Z,24.90
2022-08-26T23:43:52.204Z,24.76
2022-08-26T23:46:20.480Z,24.71
2022-08-26T23:48:48.226Z,24.71
2022-08-26T23:51:34.504Z,24.60
2022-08-26T23:54:02.093Z,24.62
2022-08-26T23:56:30.390Z,24.48
2022-08-26T23:58:58.760Z,24.52
